sensor_id;sensor_type;location;lat;lon;timestamp;P1;durP1;ratioP1;P2;durP2;ratioP2
21330;SDS011;10824;51.632;4.950;2023-08-31T00:00:45;4.88;;;2.13;;
21330;SDS011;10824;51.632;4.950;2023-08-31T00:03:13;3.53;;;2.28;;
21330;SDS011;10824;51.632;4.950;2023-08-31T00:05:42;3.72;;;1.83;;
21330;SDS011;10824;51.632;4.950;2023-08-31T00:08:10;5.32;;;2.53;;
21330;SDS011;10824;51.632;4.950;2023-08-31T00:10:37;5.60;;;2.33;;
21330;SDS011;10824;51.632;4.950;2023-08-31T00:13:06;4.80;;;2.63;;
21330;SDS011;10824;51.632;4.950;2023-08-31T00:15:35;6.90;;;2.90;;
21330;SDS011;10824;51.632;4.950;2023-08-31T00:18:03;6.63;;;2.33;;
21330;SDS011;10824;51.632;4.950;2023-08-31T00:20:31;3.15;;;1.75;;
21330;SDS011;10824;51.632;4.950;2023-08-31T00:23:00;5.70;;;2.45;;
21330;SDS011;10824;51.632;4.950;2023-08-31T00:25:27;3.90;;;2.35;;
21330;SDS011;10824;51.632;4.950;2023-08-31T00:27:55;5.47;;;2.85;;
21330;SDS011;10824;51.632;4.950;2023-08-31T00:30:24;3.60;;;1.90;;
21330;SDS011;10824;51.632;4.950;2023-08-31T00:32:56;3.45;;;1.67;;
21330;SDS011;10824;51.632;4.950;2023-08-31T00:35:27;3.35;;;2.10;;
21330;SDS011;10824;51.632;4.950;2023-08-31T00:37:55;5.10;;;2.47;;
21330;SDS011;10824;51.632;4.950;2023-08-31T00:40:28;4.60;;;2.40;;
21330;SDS011;10824;51.632;4.950;2023-08-31T00:42:57;3.40;;;1.95;;
21330;SDS011;10824;51.632;4.950;2023-08-31T00:45:24;7.93;;;2.65;;
21330;SDS011;10824;51.632;4.950;2023-08-31T00:47:51;3.05;;;2.13;;
21330;SDS011;10824;51.632;4.950;2023-08-31T00:50:19;3.00;;;2.15;;
21330;SDS011;10824;51.632;4.950;2023-08-31T00:52:46;5.68;;;2.25;;
21330;SDS011;10824;51.632;4.950;2023-08-31T00:55:14;4.40;;;2.40;;
21330;SDS011;10824;51.632;4.950;2023-08-31T00:57:44;7.97;;;3.30;;
21330;SDS011;10824;51.632;4.950;2023-08-31T01:00:13;3.88;;;2.60;;
21330;SDS011;10824;51.632;4.950;2023-08-31T01:10:58;7.82;;;2.42;;
21330;SDS011;10824;51.632;4.950;2023-08-31T01:13:51;5.38;;;2.83;;
21330;SDS011;10824;51.632;4.950;2023-08-31T01:16:22;6.10;;;2.65;;
21330;SDS011;10824;51.632;4.950;2023-08-31T01:18:52;5.63;;;2.88;;
21330;SDS011;10824;51.632;4.950;2023-08-31T01:21:24;3.55;;;2.30;;
21330;SDS011;10824;51.632;4.950;2023-08-31T01:23:55;3.58;;;1.98;;
21330;SDS011;10824;51.632;4.950;2023-08-31T01:26:24;4.07;;;3.35;;
21330;SDS011;10824;51.632;4.950;2023-08-31T01:28:52;8.57;;;2.40;;
21330;SDS011;10824;51.632;4.950;2023-08-31T01:31:21;5.00;;;2.70;;
21330;SDS011;10824;51.632;4.950;2023-08-31T01:33:48;5.45;;;2.47;;
21330;SDS011;10824;51.632;4.950;2023-08-31T01:36:26;6.22;;;2.67;;
21330;SDS011;10824;51.632;4.950;2023-08-31T01:39:06;5.32;;;2.70;;
21330;SDS011;10824;51.632;4.950;2023-08-31T01:41:48;5.63;;;3.15;;
21330;SDS011;10824;51.632;4.950;2023-08-31T01:44:21;4.07;;;2.97;;
21330;SDS011;10824;51.632;4.950;2023-08-31T01:46:51;7.63;;;3.10;;
21330;SDS011;10824;51.632;4.950;2023-08-31T01:49:23;5.88;;;3.20;;
21330;SDS011;10824;51.632;4.950;2023-08-31T01:51:50;7.20;;;3.25;;
21330;SDS011;10824;51.632;4.950;2023-08-31T01:54:17;4.22;;;2.35;;
21330;SDS011;10824;51.632;4.950;2023-08-31T01:56:45;6.07;;;2.58;;
21330;SDS011;10824;51.632;4.950;2023-08-31T01:59:12;5.95;;;2.75;;
21330;SDS011;10824;51.632;4.950;2023-08-31T02:01:39;4.13;;;2.72;;
21330;SDS011;10824;51.632;4.950;2023-08-31T02:04:06;5.97;;;2.35;;
21330;SDS011;10824;51.632;4.950;2023-08-31T02:06:34;21.45;;;4.43;;
21330;SDS011;10824;51.632;4.950;2023-08-31T02:09:02;5.90;;;2.95;;
21330;SDS011;10824;51.632;4.950;2023-08-31T02:11:29;6.55;;;2.97;;
21330;SDS011;10824;51.632;4.950;2023-08-31T02:13:58;7.32;;;2.78;;
21330;SDS011;10824;51.632;4.950;2023-08-31T02:16:25;7.20;;;2.90;;
21330;SDS011;10824;51.632;4.950;2023-08-31T02:18:54;5.18;;;2.78;;
21330;SDS011;10824;51.632;4.950;2023-08-31T02:21:22;5.25;;;2.50;;
21330;SDS011;10824;51.632;4.950;2023-08-31T02:23:52;5.57;;;3.00;;
21330;SDS011;10824;51.632;4.950;2023-08-31T02:26:19;6.38;;;2.20;;
21330;SDS011;10824;51.632;4.950;2023-08-31T02:28:47;3.53;;;2.28;;
21330;SDS011;10824;51.632;4.950;2023-08-31T02:31:16;11.55;;;4.18;;
21330;SDS011;10824;51.632;4.950;2023-08-31T02:33:46;7.37;;;3.40;;
21330;SDS011;10824;51.632;4.950;2023-08-31T02:36:13;5.30;;;2.28;;
21330;SDS011;10824;51.632;4.950;2023-08-31T02:38:41;7.40;;;4.47;;
21330;SDS011;10824;51.632;4.950;2023-08-31T02:41:08;9.20;;;3.47;;
21330;SDS011;10824;51.632;4.950;2023-08-31T02:43:36;5.32;;;2.88;;
21330;SDS011;10824;51.632;4.950;2023-08-31T02:46:03;4.07;;;3.05;;
21330;SDS011;10824;51.632;4.950;2023-08-31T02:48:32;8.70;;;4.47;;
21330;SDS011;10824;51.632;4.950;2023-08-31T02:50:59;5.40;;;2.55;;
21330;SDS011;10824;51.632;4.950;2023-08-31T02:53:28;4.50;;;2.47;;
21330;SDS011;10824;51.632;4.950;2023-08-31T02:55:59;4.40;;;2.70;;
21330;SDS011;10824;51.632;4.950;2023-08-31T02:58:28;5.10;;;3.58;;
21330;SDS011;10824;51.632;4.950;2023-08-31T03:01:08;6.82;;;2.67;;
21330;SDS011;10824;51.632;4.950;2023-08-31T03:03:43;3.30;;;2.72;;
21330;SDS011;10824;51.632;4.950;2023-08-31T03:06:12;6.80;;;2.63;;
21330;SDS011;10824;51.632;4.950;2023-08-31T03:08:39;4.45;;;2.30;;
21330;SDS011;10824;51.632;4.950;2023-08-31T03:11:06;3.17;;;2.30;;
21330;SDS011;10824;51.632;4.950;2023-08-31T03:13:35;2.70;;;2.50;;
21330;SDS011;10824;51.632;4.950;2023-08-31T03:16:02;3.90;;;2.42;;
21330;SDS011;10824;51.632;4.950;2023-08-31T03:18:29;9.07;;;2.58;;
21330;SDS011;10824;51.632;4.950;2023-08-31T03:20:57;5.22;;;2.80;;
21330;SDS011;10824;51.632;4.950;2023-08-31T03:23:24;3.70;;;2.05;;
21330;SDS011;10824;51.632;4.950;2023-08-31T03:25:51;6.95;;;2.50;;
21330;SDS011;10824;51.632;4.950;2023-08-31T03:28:19;8.00;;;4.50;;
21330;SDS011;10824;51.632;4.950;2023-08-31T03:30:54;4.15;;;3.00;;
21330;SDS011;10824;51.632;4.950;2023-08-31T03:33:24;4.30;;;2.60;;
21330;SDS011;10824;51.632;4.950;2023-08-31T03:35:53;9.38;;;3.28;;
21330;SDS011;10824;51.632;4.950;2023-08-31T03:38:20;10.48;;;3.65;;
21330;SDS011;10824;51.632;4.950;2023-08-31T03:40:54;6.45;;;2.85;;
21330;SDS011;10824;51.632;4.950;2023-08-31T03:43:21;4.35;;;2.78;;
21330;SDS011;10824;51.632;4.950;2023-08-31T03:45:54;7.65;;;3.13;;
21330;SDS011;10824;51.632;4.950;2023-08-31T03:48:24;6.78;;;3.20;;
21330;SDS011;10824;51.632;4.950;2023-08-31T03:50:52;5.70;;;2.38;;
21330;SDS011;10824;51.632;4.950;2023-08-31T03:53:21;6.13;;;3.10;;
21330;SDS011;10824;51.632;4.950;2023-08-31T03:55:52;3.45;;;2.55;;
21330;SDS011;10824;51.632;4.950;2023-08-31T03:58:20;7.20;;;3.00;;
21330;SDS011;10824;51.632;4.950;2023-08-31T04:00:50;7.78;;;3.47;;
21330;SDS011;10824;51.632;4.950;2023-08-31T04:03:18;5.10;;;2.60;;
21330;SDS011;10824;51.632;4.950;2023-08-31T04:05:47;6.00;;;2.88;;
21330;SDS011;10824;51.632;4.950;2023-08-31T04:08:14;4.82;;;2.42;;
21330;SDS011;10824;51.632;4.950;2023-08-31T04:10:41;4.00;;;2.30;;
21330;SDS011;10824;51.632;4.950;2023-08-31T04:13:08;7.32;;;3.10;;
21330;SDS011;10824;51.632;4.950;2023-08-31T04:15:36;5.60;;;2.53;;
21330;SDS011;10824;51.632;4.950;2023-08-31T04:18:03;7.47;;;2.72;;
21330;SDS011;10824;51.632;4.950;2023-08-31T04:20:32;4.32;;;2.97;;
21330;SDS011;10824;51.632;4.950;2023-08-31T04:22:59;4.68;;;2.78;;
21330;SDS011;10824;51.632;4.950;2023-08-31T04:25:28;6.28;;;2.53;;
21330;SDS011;10824;51.632;4.950;2023-08-31T04:27:57;6.32;;;3.38;;
21330;SDS011;10824;51.632;4.950;2023-08-31T04:30:25;4.80;;;2.80;;
21330;SDS011;10824;51.632;4.950;2023-08-31T04:32:53;4.03;;;2.70;;
21330;SDS011;10824;51.632;4.950;2023-08-31T04:35:20;5.47;;;2.90;;
21330;SDS011;10824;51.632;4.950;2023-08-31T04:37:47;5.00;;;2.75;;
21330;SDS011;10824;51.632;4.950;2023-08-31T04:40:14;9.27;;;3.70;;
21330;SDS011;10824;51.632;4.950;2023-08-31T04:42:42;9.35;;;3.38;;
21330;SDS011;10824;51.632;4.950;2023-08-31T04:45:09;5.82;;;3.05;;
21330;SDS011;10824;51.632;4.950;2023-08-31T04:47:38;9.40;;;3.25;;
21330;SDS011;10824;51.632;4.950;2023-08-31T04:50:05;6.40;;;2.90;;
21330;SDS011;10824;51.632;4.950;2023-08-31T04:52:33;9.55;;;3.42;;
21330;SDS011;10824;51.632;4.950;2023-08-31T04:55:00;11.27;;;4.20;;
21330;SDS011;10824;51.632;4.950;2023-08-31T04:57:30;5.15;;;3.38;;
21330;SDS011;10824;51.632;4.950;2023-08-31T04:59:57;4.22;;;2.40;;
21330;SDS011;10824;51.632;4.950;2023-08-31T05:02:24;6.57;;;3.28;;
21330;SDS011;10824;51.632;4.950;2023-08-31T05:04:51;10.30;;;4.22;;
21330;SDS011;10824;51.632;4.950;2023-08-31T05:07:18;5.07;;;2.22;;
21330;SDS011;10824;51.632;4.950;2023-08-31T05:09:45;6.80;;;2.97;;
21330;SDS011;10824;51.632;4.950;2023-08-31T05:12:12;6.05;;;2.85;;
21330;SDS011;10824;51.632;4.950;2023-08-31T05:14:40;4.85;;;2.92;;
21330;SDS011;10824;51.632;4.950;2023-08-31T05:17:07;10.45;;;3.90;;
21330;SDS011;10824;51.632;4.950;2023-08-31T05:19:34;7.85;;;3.17;;
21330;SDS011;10824;51.632;4.950;2023-08-31T05:22:01;3.33;;;2.13;;
21330;SDS011;10824;51.632;4.950;2023-08-31T05:24:28;10.25;;;3.97;;
21330;SDS011;10824;51.632;4.950;2023-08-31T05:26:56;5.07;;;3.05;;
21330;SDS011;10824;51.632;4.950;2023-08-31T05:29:23;5.32;;;2.92;;
21330;SDS011;10824;51.632;4.950;2023-08-31T05:31:51;6.65;;;3.78;;
21330;SDS011;10824;51.632;4.950;2023-08-31T05:34:20;6.43;;;2.85;;
21330;SDS011;10824;51.632;4.950;2023-08-31T05:36:49;5.07;;;3.80;;
21330;SDS011;10824;51.632;4.950;2023-08-31T05:39:16;5.13;;;2.60;;
21330;SDS011;10824;51.632;4.950;2023-08-31T05:41:43;6.47;;;3.25;;
21330;SDS011;10824;51.632;4.950;2023-08-31T05:44:10;6.20;;;2.70;;
21330;SDS011;10824;51.632;4.950;2023-08-31T05:46:37;12.02;;;3.20;;
21330;SDS011;10824;51.632;4.950;2023-08-31T05:49:06;5.10;;;2.80;;
21330;SDS011;10824;51.632;4.950;2023-08-31T05:51:34;7.22;;;3.08;;
21330;SDS011;10824;51.632;4.950;2023-08-31T05:54:01;8.68;;;3.10;;
21330;SDS011;10824;51.632;4.950;2023-08-31T05:56:31;5.38;;;3.03;;
21330;SDS011;10824;51.632;4.950;2023-08-31T05:58:58;10.73;;;3.75;;
21330;SDS011;10824;51.632;4.950;2023-08-31T06:01:25;5.25;;;2.60;;
21330;SDS011;10824;51.632;4.950;2023-08-31T06:03:52;6.68;;;3.08;;
21330;SDS011;10824;51.632;4.950;2023-08-31T06:06:19;3.72;;;2.72;;
21330;SDS011;10824;51.632;4.950;2023-08-31T06:08:46;8.48;;;3.33;;
21330;SDS011;10824;51.632;4.950;2023-08-31T06:11:14;6.78;;;2.60;;
21330;SDS011;10824;51.632;4.950;2023-08-31T06:13:42;4.95;;;3.17;;
21330;SDS011;10824;51.632;4.950;2023-08-31T06:16:09;8.18;;;3.17;;
21330;SDS011;10824;51.632;4.950;2023-08-31T06:18:37;7.85;;;3.47;;
21330;SDS011;10824;51.632;4.950;2023-08-31T06:21:04;9.70;;;3.00;;
21330;SDS011;10824;51.632;4.950;2023-08-31T06:23:31;6.18;;;2.55;;
21330;SDS011;10824;51.632;4.950;2023-08-31T06:25:58;9.35;;;3.28;;
21330;SDS011;10824;51.632;4.950;2023-08-31T06:28:25;3.95;;;2.75;;
21330;SDS011;10824;51.632;4.950;2023-08-31T06:30:52;5.32;;;2.47;;
21330;SDS011;10824;51.632;4.950;2023-08-31T06:33:19;6.18;;;2.75;;
21330;SDS011;10824;51.632;4.950;2023-08-31T06:35:46;5.20;;;2.30;;
21330;SDS011;10824;51.632;4.950;2023-08-31T06:40:46;10.40;;;2.72;;
21330;SDS011;10824;51.632;4.950;2023-08-31T06:43:13;5.95;;;2.53;;
21330;SDS011;10824;51.632;4.950;2023-08-31T06:45:41;8.35;;;3.47;;
21330;SDS011;10824;51.632;4.950;2023-08-31T06:48:08;6.72;;;3.03;;
21330;SDS011;10824;51.632;4.950;2023-08-31T06:50:35;7.40;;;3.47;;
21330;SDS011;10824;51.632;4.950;2023-08-31T06:53:03;5.43;;;2.65;;
21330;SDS011;10824;51.632;4.950;2023-08-31T06:55:30;11.80;;;3.00;;
21330;SDS011;10824;51.632;4.950;2023-08-31T06:57:59;13.75;;;4.00;;
21330;SDS011;10824;51.632;4.950;2023-08-31T07:00:27;7.53;;;3.05;;
21330;SDS011;10824;51.632;4.950;2023-08-31T07:02:56;7.07;;;4.07;;
21330;SDS011;10824;51.632;4.950;2023-08-31T07:05:25;11.00;;;3.35;;
21330;SDS011;10824;51.632;4.950;2023-08-31T07:07:54;9.05;;;4.03;;
21330;SDS011;10824;51.632;4.950;2023-08-31T07:10:22;5.57;;;2.88;;
21330;SDS011;10824;51.632;4.950;2023-08-31T07:12:50;4.72;;;3.20;;
21330;SDS011;10824;51.632;4.950;2023-08-31T07:15:17;6.30;;;2.53;;
21330;SDS011;10824;51.632;4.950;2023-08-31T07:17:44;9.38;;;2.72;;
21330;SDS011;10824;51.632;4.950;2023-08-31T07:20:11;9.00;;;3.60;;
21330;SDS011;10824;51.632;4.950;2023-08-31T07:22:38;5.05;;;2.67;;
21330;SDS011;10824;51.632;4.950;2023-08-31T07:25:07;24.38;;;3.88;;
21330;SDS011;10824;51.632;4.950;2023-08-31T07:27:34;10.15;;;2.50;;
21330;SDS011;10824;51.632;4.950;2023-08-31T07:30:02;9.77;;;2.53;;
21330;SDS011;10824;51.632;4.950;2023-08-31T07:32:30;4.90;;;3.05;;
21330;SDS011;10824;51.632;4.950;2023-08-31T07:34:57;5.22;;;3.05;;
21330;SDS011;10824;51.632;4.950;2023-08-31T07:37:25;4.60;;;2.20;;
21330;SDS011;10824;51.632;4.950;2023-08-31T07:39:52;9.85;;;3.95;;
21330;SDS011;10824;51.632;4.950;2023-08-31T07:42:19;8.88;;;3.08;;
21330;SDS011;10824;51.632;4.950;2023-08-31T07:44:46;9.07;;;3.58;;
21330;SDS011;10824;51.632;4.950;2023-08-31T07:47:14;4.82;;;3.10;;
21330;SDS011;10824;51.632;4.950;2023-08-31T07:49:41;7.68;;;2.80;;
21330;SDS011;10824;51.632;4.950;2023-08-31T07:52:08;6.50;;;2.25;;
21330;SDS011;10824;51.632;4.950;2023-08-31T07:54:37;6.22;;;2.45;;
21330;SDS011;10824;51.632;4.950;2023-08-31T07:57:04;5.18;;;2.42;;
21330;SDS011;10824;51.632;4.950;2023-08-31T07:59:31;6.88;;;2.97;;
21330;SDS011;10824;51.632;4.950;2023-08-31T08:01:58;7.03;;;2.47;;
21330;SDS011;10824;51.632;4.950;2023-08-31T08:04:25;5.30;;;2.30;;
21330;SDS011;10824;51.632;4.950;2023-08-31T08:06:53;3.22;;;2.05;;
21330;SDS011;10824;51.632;4.950;2023-08-31T08:09:21;8.18;;;3.05;;
21330;SDS011;10824;51.632;4.950;2023-08-31T08:11:48;5.35;;;2.15;;
21330;SDS011;10824;51.632;4.950;2023-08-31T08:14:15;5.38;;;1.88;;
21330;SDS011;10824;51.632;4.950;2023-08-31T08:16:42;5.25;;;2.42;;
21330;SDS011;10824;51.632;4.950;2023-08-31T08:19:09;4.57;;;2.30;;
21330;SDS011;10824;51.632;4.950;2023-08-31T08:21:37;5.43;;;3.13;;
21330;SDS011;10824;51.632;4.950;2023-08-31T08:24:04;5.63;;;2.30;;
21330;SDS011;10824;51.632;4.950;2023-08-31T08:26:31;5.43;;;2.55;;
21330;SDS011;10824;51.632;4.950;2023-08-31T08:28:58;5.50;;;1.90;;
21330;SDS011;10824;51.632;4.950;2023-08-31T08:31:25;7.80;;;2.50;;
21330;SDS011;10824;51.632;4.950;2023-08-31T08:33:52;4.05;;;2.22;;
21330;SDS011;10824;51.632;4.950;2023-08-31T08:36:20;3.55;;;2.03;;
21330;SDS011;10824;51.632;4.950;2023-08-31T08:38:47;6.30;;;2.05;;
21330;SDS011;10824;51.632;4.950;2023-08-31T08:41:14;4.40;;;2.17;;
21330;SDS011;10824;51.632;4.950;2023-08-31T08:43:45;4.70;;;2.45;;
21330;SDS011;10824;51.632;4.950;2023-08-31T08:46:14;4.90;;;1.70;;
21330;SDS011;10824;51.632;4.950;2023-08-31T08:48:41;7.32;;;2.40;;
21330;SDS011;10824;51.632;4.950;2023-08-31T08:51:10;3.30;;;1.65;;
21330;SDS011;10824;51.632;4.950;2023-08-31T08:53:39;4.20;;;1.92;;
21330;SDS011;10824;51.632;4.950;2023-08-31T08:56:09;3.92;;;1.63;;
21330;SDS011;10824;51.632;4.950;2023-08-31T08:58:37;3.40;;;1.83;;
21330;SDS011;10824;51.632;4.950;2023-08-31T09:01:04;3.58;;;1.67;;
21330;SDS011;10824;51.632;4.950;2023-08-31T09:03:34;7.70;;;2.40;;
21330;SDS011;10824;51.632;4.950;2023-08-31T09:06:01;5.28;;;2.80;;
21330;SDS011;10824;51.632;4.950;2023-08-31T09:08:30;4.65;;;1.90;;
21330;SDS011;10824;51.632;4.950;2023-08-31T09:10:57;3.58;;;1.60;;
21330;SDS011;10824;51.632;4.950;2023-08-31T09:13:28;2.92;;;1.70;;
21330;SDS011;10824;51.632;4.950;2023-08-31T09:15:57;3.90;;;1.63;;
21330;SDS011;10824;51.632;4.950;2023-08-31T09:20:56;3.33;;;1.42;;
21330;SDS011;10824;51.632;4.950;2023-08-31T09:23:24;4.20;;;1.60;;
21330;SDS011;10824;51.632;4.950;2023-08-31T09:25:52;3.42;;;1.63;;
21330;SDS011;10824;51.632;4.950;2023-08-31T09:28:24;4.07;;;1.38;;
21330;SDS011;10824;51.632;4.950;2023-08-31T09:31:04;4.15;;;2.33;;
21330;SDS011;10824;51.632;4.950;2023-08-31T09:33:36;4.72;;;1.58;;
21330;SDS011;10824;51.632;4.950;2023-08-31T09:36:05;2.92;;;1.60;;
21330;SDS011;10824;51.632;4.950;2023-08-31T09:38:42;3.10;;;1.65;;
21330;SDS011;10824;51.632;4.950;2023-08-31T09:41:10;10.80;;;2.63;;
21330;SDS011;10824;51.632;4.950;2023-08-31T09:43:46;4.05;;;0.98;;
21330;SDS011;10824;51.632;4.950;2023-08-31T09:46:13;3.28;;;1.00;;
21330;SDS011;10824;51.632;4.950;2023-08-31T09:48:42;2.25;;;1.00;;
21330;SDS011;10824;51.632;4.950;2023-08-31T09:51:10;1.63;;;1.00;;
21330;SDS011;10824;51.632;4.950;2023-08-31T09:53:37;2.80;;;1.33;;
21330;SDS011;10824;51.632;4.950;2023-08-31T09:56:05;4.50;;;1.00;;
21330;SDS011;10824;51.632;4.950;2023-08-31T09:58:33;3.55;;;0.90;;
21330;SDS011;10824;51.632;4.950;2023-08-31T10:01:01;5.25;;;1.52;;
21330;SDS011;10824;51.632;4.950;2023-08-31T10:03:41;1.10;;;0.88;;
21330;SDS011;10824;51.632;4.950;2023-08-31T10:06:10;1.88;;;0.63;;
21330;SDS011;10824;51.632;4.950;2023-08-31T10:08:40;2.92;;;1.05;;
21330;SDS011;10824;51.632;4.950;2023-08-31T10:11:09;2.97;;;1.40;;
21330;SDS011;10824;51.632;4.950;2023-08-31T10:13:40;4.88;;;2.30;;
21330;SDS011;10824;51.632;4.950;2023-08-31T10:16:09;3.10;;;1.23;;
21330;SDS011;10824;51.632;4.950;2023-08-31T10:18:40;1.45;;;0.80;;
21330;SDS011;10824;51.632;4.950;2023-08-31T10:21:07;1.92;;;0.88;;
21330;SDS011;10824;51.632;4.950;2023-08-31T10:23:35;2.05;;;0.90;;
21330;SDS011;10824;51.632;4.950;2023-08-31T10:26:10;1.15;;;0.85;;
21330;SDS011;10824;51.632;4.950;2023-08-31T10:28:39;2.75;;;0.88;;
21330;SDS011;10824;51.632;4.950;2023-08-31T10:31:14;1.67;;;0.82;;
21330;SDS011;10824;51.632;4.950;2023-08-31T10:33:47;1.27;;;0.70;;
21330;SDS011;10824;51.632;4.950;2023-08-31T10:36:34;1.27;;;0.80;;
21330;SDS011;10824;51.632;4.950;2023-08-31T10:39:10;2.67;;;0.90;;
21330;SDS011;10824;51.632;4.950;2023-08-31T10:41:55;1.48;;;0.80;;
21330;SDS011;10824;51.632;4.950;2023-08-31T10:44:24;1.50;;;0.63;;
21330;SDS011;10824;51.632;4.950;2023-08-31T10:46:53;3.35;;;1.08;;
21330;SDS011;10824;51.632;4.950;2023-08-31T10:49:21;2.10;;;0.80;;
21330;SDS011;10824;51.632;4.950;2023-08-31T10:51:53;4.65;;;1.10;;
21330;SDS011;10824;51.632;4.950;2023-08-31T10:54:25;3.00;;;0.80;;
21330;SDS011;10824;51.632;4.950;2023-08-31T10:59:40;3.75;;;1.10;;
21330;SDS011;10824;51.632;4.950;2023-08-31T11:02:31;4.00;;;1.27;;
21330;SDS011;10824;51.632;4.950;2023-08-31T11:12:54;7.85;;;0.80;;
21330;SDS011;10824;51.632;4.950;2023-08-31T11:15:24;0.95;;;0.85;;
21330;SDS011;10824;51.632;4.950;2023-08-31T11:17:53;1.98;;;0.85;;
21330;SDS011;10824;51.632;4.950;2023-08-31T11:20:23;1.65;;;0.80;;
21330;SDS011;10824;51.632;4.950;2023-08-31T11:22:55;1.98;;;1.00;;
21330;SDS011;10824;51.632;4.950;2023-08-31T11:25:24;0.55;;;0.55;;
21330;SDS011;10824;51.632;4.950;2023-08-31T11:27:53;3.65;;;0.80;;
21330;SDS011;10824;51.632;4.950;2023-08-31T11:30:28;1.05;;;0.70;;
21330;SDS011;10824;51.632;4.950;2023-08-31T11:33:07;1.05;;;0.77;;
21330;SDS011;10824;51.632;4.950;2023-08-31T11:35:39;2.95;;;0.70;;
21330;SDS011;10824;51.632;4.950;2023-08-31T11:38:10;0.95;;;0.60;;
21330;SDS011;10824;51.632;4.950;2023-08-31T11:40:38;2.35;;;1.25;;
21330;SDS011;10824;51.632;4.950;2023-08-31T11:43:06;0.93;;;0.55;;
21330;SDS011;10824;51.632;4.950;2023-08-31T11:45:34;4.22;;;1.13;;
21330;SDS011;10824;51.632;4.950;2023-08-31T11:48:05;7.40;;;1.73;;
21330;SDS011;10824;51.632;4.950;2023-08-31T11:50:34;3.03;;;1.48;;
21330;SDS011;10824;51.632;4.950;2023-08-31T11:53:01;5.53;;;1.00;;
21330;SDS011;10824;51.632;4.950;2023-08-31T11:55:29;1.60;;;0.85;;
21330;SDS011;10824;51.632;4.950;2023-08-31T11:58:02;1.10;;;0.82;;
21330;SDS011;10824;51.632;4.950;2023-08-31T12:00:30;4.68;;;1.77;;
21330;SDS011;10824;51.632;4.950;2023-08-31T12:03:00;1.50;;;0.52;;
21330;SDS011;10824;51.632;4.950;2023-08-31T12:05:28;0.73;;;0.60;;
21330;SDS011;10824;51.632;4.950;2023-08-31T12:07:59;1.13;;;0.50;;
21330;SDS011;10824;51.632;4.950;2023-08-31T12:10:26;1.95;;;0.60;;
21330;SDS011;10824;51.632;4.950;2023-08-31T12:12:54;20.33;;;2.88;;
21330;SDS011;10824;51.632;4.950;2023-08-31T12:15:33;1.77;;;0.57;;
21330;SDS011;10824;51.632;4.950;2023-08-31T12:18:08;1.10;;;0.63;;
21330;SDS011;10824;51.632;4.950;2023-08-31T12:20:43;1.65;;;0.60;;
21330;SDS011;10824;51.632;4.950;2023-08-31T12:23:11;1.33;;;0.70;;
21330;SDS011;10824;51.632;4.950;2023-08-31T12:25:38;3.05;;;0.52;;
21330;SDS011;10824;51.632;4.950;2023-08-31T12:28:06;1.67;;;0.50;;
21330;SDS011;10824;51.632;4.950;2023-08-31T12:30:33;2.78;;;0.60;;
21330;SDS011;10824;51.632;4.950;2023-08-31T12:33:00;7.25;;;1.83;;
21330;SDS011;10824;51.632;4.950;2023-08-31T12:35:27;2.63;;;0.60;;
21330;SDS011;10824;51.632;4.950;2023-08-31T12:37:57;0.60;;;0.50;;
21330;SDS011;10824;51.632;4.950;2023-08-31T12:40:24;2.80;;;0.75;;
21330;SDS011;10824;51.632;4.950;2023-08-31T12:42:51;2.75;;;1.15;;
21330;SDS011;10824;51.632;4.950;2023-08-31T12:45:19;2.58;;;0.85;;
21330;SDS011;10824;51.632;4.950;2023-08-31T12:47:46;1.67;;;1.10;;
21330;SDS011;10824;51.632;4.950;2023-08-31T12:50:15;2.90;;;0.77;;
21330;SDS011;10824;51.632;4.950;2023-08-31T12:52:42;2.33;;;1.15;;
21330;SDS011;10824;51.632;4.950;2023-08-31T12:55:13;3.78;;;1.00;;
21330;SDS011;10824;51.632;4.950;2023-08-31T12:57:41;6.35;;;0.77;;
21330;SDS011;10824;51.632;4.950;2023-08-31T13:00:09;1.67;;;1.05;;
21330;SDS011;10824;51.632;4.950;2023-08-31T13:02:41;4.65;;;0.90;;
21330;SDS011;10824;51.632;4.950;2023-08-31T13:05:12;2.45;;;0.45;;
21330;SDS011;10824;51.632;4.950;2023-08-31T13:07:39;2.58;;;1.00;;
21330;SDS011;10824;51.632;4.950;2023-08-31T13:10:09;1.88;;;0.63;;
21330;SDS011;10824;51.632;4.950;2023-08-31T13:12:36;7.00;;;0.80;;
21330;SDS011;10824;51.632;4.950;2023-08-31T13:15:03;1.17;;;0.47;;
21330;SDS011;10824;51.632;4.950;2023-08-31T13:17:31;0.40;;;0.40;;
21330;SDS011;10824;51.632;4.950;2023-08-31T13:19:59;2.88;;;0.52;;
21330;SDS011;10824;51.632;4.950;2023-08-31T13:22:27;2.28;;;0.52;;
21330;SDS011;10824;51.632;4.950;2023-08-31T13:24:55;1.50;;;0.70;;
21330;SDS011;10824;51.632;4.950;2023-08-31T13:27:23;2.03;;;0.60;;
21330;SDS011;10824;51.632;4.950;2023-08-31T13:29:50;1.25;;;0.52;;
21330;SDS011;10824;51.632;4.950;2023-08-31T13:32:17;1.83;;;0.50;;
21330;SDS011;10824;51.632;4.950;2023-08-31T13:34:45;1.15;;;0.63;;
21330;SDS011;10824;51.632;4.950;2023-08-31T13:37:13;0.98;;;0.50;;
21330;SDS011;10824;51.632;4.950;2023-08-31T13:39:40;1.65;;;0.80;;
21330;SDS011;10824;51.632;4.950;2023-08-31T13:42:07;1.67;;;0.50;;
21330;SDS011;10824;51.632;4.950;2023-08-31T13:44:35;2.28;;;0.57;;
21330;SDS011;10824;51.632;4.950;2023-08-31T13:47:03;1.20;;;0.50;;
21330;SDS011;10824;51.632;4.950;2023-08-31T13:49:31;0.85;;;0.60;;
21330;SDS011;10824;51.632;4.950;2023-08-31T13:51:59;3.30;;;1.08;;
21330;SDS011;10824;51.632;4.950;2023-08-31T13:54:26;0.80;;;0.60;;
21330;SDS011;10824;51.632;4.950;2023-08-31T13:56:53;1.08;;;0.47;;
21330;SDS011;10824;51.632;4.950;2023-08-31T13:59:21;1.25;;;0.60;;
21330;SDS011;10824;51.632;4.950;2023-08-31T14:01:48;2.00;;;0.70;;
21330;SDS011;10824;51.632;4.950;2023-08-31T14:04:15;1.83;;;0.90;;
21330;SDS011;10824;51.632;4.950;2023-08-31T14:06:43;3.42;;;0.82;;
21330;SDS011;10824;51.632;4.950;2023-08-31T14:09:10;0.85;;;0.70;;
21330;SDS011;10824;51.632;4.950;2023-08-31T14:11:37;0.90;;;0.45;;
21330;SDS011;10824;51.632;4.950;2023-08-31T14:14:04;2.92;;;0.60;;
21330;SDS011;10824;51.632;4.950;2023-08-31T14:19:03;2.00;;;0.90;;
21330;SDS011;10824;51.632;4.950;2023-08-31T14:21:31;1.50;;;0.60;;
21330;SDS011;10824;51.632;4.950;2023-08-31T14:24:00;4.50;;;0.60;;
21330;SDS011;10824;51.632;4.950;2023-08-31T14:26:27;0.95;;;0.80;;
21330;SDS011;10824;51.632;4.950;2023-08-31T14:28:54;2.28;;;0.90;;
21330;SDS011;10824;51.632;4.950;2023-08-31T14:31:21;3.03;;;0.52;;
21330;SDS011;10824;51.632;4.950;2023-08-31T14:33:50;1.45;;;0.65;;
21330;SDS011;10824;51.632;4.950;2023-08-31T14:36:18;0.95;;;0.60;;
21330;SDS011;10824;51.632;4.950;2023-08-31T14:38:45;3.10;;;1.05;;
21330;SDS011;10824;51.632;4.950;2023-08-31T14:41:12;1.23;;;0.80;;
21330;SDS011;10824;51.632;4.950;2023-08-31T14:43:40;2.97;;;0.80;;
21330;SDS011;10824;51.632;4.950;2023-08-31T14:46:08;2.25;;;0.70;;
21330;SDS011;10824;51.632;4.950;2023-08-31T14:48:36;2.22;;;1.27;;
21330;SDS011;10824;51.632;4.950;2023-08-31T14:51:03;1.83;;;0.80;;
21330;SDS011;10824;51.632;4.950;2023-08-31T14:53:30;1.15;;;1.05;;
21330;SDS011;10824;51.632;4.950;2023-08-31T14:55:57;1.60;;;0.70;;
21330;SDS011;10824;51.632;4.950;2023-08-31T14:58:25;1.13;;;0.70;;
21330;SDS011;10824;51.632;4.950;2023-08-31T15:00:55;2.78;;;1.10;;
21330;SDS011;10824;51.632;4.950;2023-08-31T15:03:23;2.80;;;0.60;;
21330;SDS011;10824;51.632;4.950;2023-08-31T15:05:51;1.42;;;0.40;;
21330;SDS011;10824;51.632;4.950;2023-08-31T15:08:21;0.93;;;0.60;;
21330;SDS011;10824;51.632;4.950;2023-08-31T15:11:01;2.00;;;1.00;;
21330;SDS011;10824;51.632;4.950;2023-08-31T15:13:29;1.15;;;0.60;;
21330;SDS011;10824;51.632;4.950;2023-08-31T15:15:58;1.38;;;0.70;;
21330;SDS011;10824;51.632;4.950;2023-08-31T15:18:29;1.10;;;0.60;;
21330;SDS011;10824;51.632;4.950;2023-08-31T15:20:57;2.15;;;0.65;;
21330;SDS011;10824;51.632;4.950;2023-08-31T15:23:24;1.55;;;1.20;;